National Geographic Sea Lion — WUR9646 — position and weather

sailwx.info

Track history (hours):
 
Tides and Currents Weather Stations Pressure Air Temp Water Temp Dewpoint Dewpoint Depression Visibility Wind Speed Wind Dir Waves Ship Positions

National Geographic Sea Lion

Owner: Lindblad Expeditions LLC, SEATTLE, WA. More information available from US FCC via Universal Licensing System and Coast Guard Vessel Documentation Center.

Last reported at 2018-Aug-16 09:47 UTC. Time now 2018-Aug-16 20:19 UTC.
Position N 58°11' W 135°24'.

Length 45 m; draft 2.4 m.

Type: Passenger vessel. MMSI: 366396000.

Date/timePositionNaut miles runAvg speedWind from/ knotsBaromVisibWave heightAir tempDewpointWater temp
2018-Aug-16 09:47N 58°11' W 135°24'3 7.1
2018-Aug-16 09:26N 58°13' W 135°28'4 8.1
2018-Aug-16 08:59N 58°14' W 135°34'4 8.6
2018-Aug-16 08:30N 58°16' W 135°41'4 8.6
2018-Aug-16 08:01N 58°18' W 135°48'510.4
2018-Aug-16 07:31N 58°21' W 135°57'510.5
2018-Aug-16 07:00N 58°26' W 135°56'2 4.1
2018-Aug-16 06:30N 58°27' W 135°53'0 0.0
2018-Aug-16 06:00N 58°27' W 135°53'0 0.0
2018-Aug-16 05:30N 58°27' W 135°53'0 0.0
2018-Aug-16 05:00N 58°27' W 135°53'0 0.0
2018-Aug-16 04:30N 58°27' W 135°53'0 0.0
2018-Aug-16 04:00N 58°27' W 135°53'0 0.0
2018-Aug-16 03:30N 58°27' W 135°53'2 4.0
2018-Aug-16 03:00N 58°26' W 135°56'5 9.3
2018-Aug-16 02:30N 58°29' W 136°03'5 9.3
2018-Aug-16 02:00N 58°34' W 136°03'5 9.3
2018-Aug-16 01:30N 58°38' W 136°02'1 1.3
2018-Aug-16 01:00N 58°39' W 136°03'4 8.5
2018-Aug-16 00:30N 58°40' W 136°10'5 3.0
2018-Aug-15 22:41N 58°41' W 136°21'1 8.3
2018-Aug-15 22:30N 58°42' W 136°22'7 0.6
2018-Aug-15 11:20N 58°49' W 136°27'410.0
2018-Aug-15 10:55N 58°46' W 136°21'410.4
2018-Aug-15 10:30N 58°43' W 136°15'510.6
2018-Aug-15 10:00N 58°40' W 136°08'5 9.8
2018-Aug-15 09:30N 58°35' W 136°04'5 9.7
2018-Aug-15 09:00N 58°30' W 136°04'612.5
2018-Aug-15 08:31N 58°24' W 135°60'510.5
2018-Aug-15 08:01N 58°20' W 135°56'3 6.7
2018-Aug-15 07:31N 58°21' W 135°50'4 7.5
2018-Aug-15 07:00N 58°23' W 135°44'0 0.0
2018-Aug-15 06:23N 58°23' W 135°44'0 0.1
2018-Aug-15 05:53N 58°23' W 135°44'0 0.0
2018-Aug-15 05:29N 58°23' W 135°44'0 0.1
2018-Aug-15 04:56N 58°23' W 135°44'0 0.0
2018-Aug-15 04:29N 58°23' W 135°44'0 0.0
2018-Aug-15 03:53N 58°23' W 135°44'0 0.0
2018-Aug-15 03:17N 58°23' W 135°44'0 0.3
2018-Aug-15 03:00N 58°23' W 135°44'2 4.1
2018-Aug-15 02:30N 58°22' W 135°48'4 8.9
2018-Aug-15 02:00N 58°19' W 135°55'2 4.8
2018-Aug-15 01:30N 58°18' W 135°58'5 9.2
2018-Aug-15 01:00N 58°15' W 136°05'5 9.3
2018-Aug-15 00:26N 58°15' W 136°15'3 5.8
2018-Aug-14 23:59N 58°14' W 136°20'0 0.0
2018-Aug-14 23:12N 58°14' W 136°20'0 0.0
2018-Aug-14 20:51N 58°14' W 136°20'0 0.0
2018-Aug-14 20:21N 58°14' W 136°20'0 0.0
2018-Aug-14 18:48N 58°14' W 136°20'1 0.1
2018-Aug-14 11:48N 58°14' W 136°20'3 9.2
2018-Aug-14 11:30N 58°14' W 136°15'5 9.9
2018-Aug-14 11:00N 58°15' W 136°06'4 8.8
2018-Aug-14 10:30N 58°16' W 135°58'510.0
2018-Aug-14 10:00N 58°18' W 135°49'510.1
2018-Aug-14 09:30N 58°16' W 135°40'510.4
2018-Aug-14 09:00N 58°14' W 135°31'  
2018-Aug-11 09:47N 58°12' W 135°28'3 9.8
2018-Aug-11 09:30N 58°14' W 135°32'5 9.6
2018-Aug-11 09:01N 58°16' W 135°40'5 9.6
2018-Aug-11 08:30N 58°18' W 135°49'4 8.6
2018-Aug-11 08:00N 58°20' W 135°56'4 7.8
2018-Aug-11 07:31N 58°24' W 135°57'4 8.0
2018-Aug-11 07:00N 58°27' W 135°54'0 0.5
2018-Aug-11 06:28N 58°27' W 135°53'0 0.0
2018-Aug-11 05:58N 58°27' W 135°53'0 0.0
2018-Aug-11 05:28N 58°27' W 135°53'0 0.0
2018-Aug-11 04:58N 58°27' W 135°53'0 0.0
2018-Aug-11 04:30N 58°27' W 135°53'1 2.9
2018-Aug-11 04:00N 58°27' W 135°56'5 9.3
2018-Aug-11 03:30N 58°29' W 136°03'611.8
2018-Aug-11 03:00N 58°34' W 136°08'611.6
2018-Aug-11 02:30N 58°39' W 136°15'510.2
2018-Aug-11 02:00N 58°42' W 136°22'5 9.0
2018-Aug-11 01:30N 58°47' W 136°26'5 0.6
2018-Aug-10 17:30N 58°45' W 136°16'511.0
2018-Aug-10 17:00N 58°41' W 136°09'4 8.4
2018-Aug-10 16:30N 58°39' W 136°03'1 1.7
2018-Aug-10 16:00N 58°38' W 136°02'5 9.1
2018-Aug-10 15:30N 58°34' W 136°03'4 9.0
2018-Aug-10 15:00N 58°29' W 136°03'4 7.4
2018-Aug-10 14:30N 58°26' W 135°58'3 5.3
2018-Aug-10 14:00N 58°28' W 135°54'0 0.1
2018-Aug-10 13:30N 58°28' W 135°54'4 7.4
2018-Aug-10 13:00N 58°24' W 135°58'3 6.2
2018-Aug-10 12:30N 58°21' W 135°58'3 6.1
2018-Aug-10 12:00N 58°20' W 135°53'5 9.4
2018-Aug-10 11:30N 58°23' W 135°45'1 2.1
2018-Aug-10 11:00N 58°23' W 135°44'0 0.0
2018-Aug-10 10:30N 58°23' W 135°44'0 0.0
2018-Aug-10 10:00N 58°23' W 135°44'0 0.0
2018-Aug-10 09:30N 58°23' W 135°44'0 0.0
2018-Aug-10 09:00N 58°23' W 135°44'0 0.1
2018-Aug-10 08:27N 58°23' W 135°43'0 0.0
2018-Aug-10 07:57N 58°23' W 135°43'0 0.0
2018-Aug-10 07:27N 58°23' W 135°43'0 0.1
2018-Aug-10 07:00N 58°23' W 135°43'0 0.0
2018-Aug-10 06:21N 58°23' W 135°43'0 0.1
2018-Aug-10 06:00N 58°23' W 135°43'0 0.1
2018-Aug-10 05:27N 58°23' W 135°43'0 0.0
2018-Aug-10 04:57N 58°23' W 135°43'0 0.0
2018-Aug-10 04:30N 58°23' W 135°43'1 2.2
2018-Aug-10 04:00N 58°22' W 135°45'510.1
2018-Aug-10 03:30N 58°20' W 135°53'510.9
2018-Aug-10 03:00N 58°16' W 136°01'6 9.8
2018-Aug-10 02:26N 58°15' W 136°11'5 0.9
2018-Aug-09 20:35N 58°14' W 136°20'1 6.1
2018-Aug-09 20:29N 58°14' W 136°20'0 0.0
2018-Aug-09 15:45N 58°14' W 136°20'0 0.1
2018-Aug-09 15:23N 58°14' W 136°20'1 2.7
2018-Aug-09 15:00N 58°14' W 136°18'3 4.6
2018-Aug-09 14:15N 58°15' W 136°12'2 6.8
2018-Aug-09 14:00N 58°14' W 136°09'4 8.2
2018-Aug-09 13:30N 58°15' W 136°01'4 8.1
2018-Aug-09 13:00N 58°18' W 135°55'4 8.0
2018-Aug-09 12:30N 58°18' W 135°48'4 7.7
2018-Aug-09 12:00N 58°16' W 135°41'4 7.9
2018-Aug-09 11:28N 58°14' W 135°34'  
Track history (hours):
 
Tides and Currents Weather Stations Pressure Air Temp Water Temp Dewpoint Dewpoint Depression Visibility Wind Speed Wind Dir Waves Ship Positions

National Geographic Sea Lion

Owner: Lindblad Expeditions LLC, SEATTLE, WA. More information available from US FCC via Universal Licensing System and Coast Guard Vessel Documentation Center.

Last reported at 2018-Aug-16 09:47 UTC. Time now 2018-Aug-16 20:19 UTC.
Position N 58°11' W 135°24'.

Length 45 m; draft 2.4 m.

Type: Passenger vessel. MMSI: 366396000.

Date/timePositionNaut miles runAvg speedWind from/ knotsBaromVisibWave heightAir tempDewpointWater temp
2018-Aug-16 09:47N 58°11' W 135°24'3 7.1
2018-Aug-16 09:26N 58°13' W 135°28'4 8.1
2018-Aug-16 08:59N 58°14' W 135°34'4 8.6
2018-Aug-16 08:30N 58°16' W 135°41'4 8.6
2018-Aug-16 08:01N 58°18' W 135°48'510.4
2018-Aug-16 07:31N 58°21' W 135°57'510.5
2018-Aug-16 07:00N 58°26' W 135°56'2 4.1
2018-Aug-16 06:30N 58°27' W 135°53'0 0.0
2018-Aug-16 06:00N 58°27' W 135°53'0 0.0
2018-Aug-16 05:30N 58°27' W 135°53'0 0.0
2018-Aug-16 05:00N 58°27' W 135°53'0 0.0
2018-Aug-16 04:30N 58°27' W 135°53'0 0.0
2018-Aug-16 04:00N 58°27' W 135°53'0 0.0
2018-Aug-16 03:30N 58°27' W 135°53'2 4.0
2018-Aug-16 03:00N 58°26' W 135°56'5 9.3
2018-Aug-16 02:30N 58°29' W 136°03'5 9.3
2018-Aug-16 02:00N 58°34' W 136°03'5 9.3
2018-Aug-16 01:30N 58°38' W 136°02'1 1.3
2018-Aug-16 01:00N 58°39' W 136°03'4 8.5
2018-Aug-16 00:30N 58°40' W 136°10'5 3.0
2018-Aug-15 22:41N 58°41' W 136°21'1 8.3
2018-Aug-15 22:30N 58°42' W 136°22'7 0.6
2018-Aug-15 11:20N 58°49' W 136°27'410.0
2018-Aug-15 10:55N 58°46' W 136°21'410.4
2018-Aug-15 10:30N 58°43' W 136°15'510.6
2018-Aug-15 10:00N 58°40' W 136°08'5 9.8
2018-Aug-15 09:30N 58°35' W 136°04'5 9.7
2018-Aug-15 09:00N 58°30' W 136°04'612.5
2018-Aug-15 08:31N 58°24' W 135°60'510.5
2018-Aug-15 08:01N 58°20' W 135°56'3 6.7
2018-Aug-15 07:31N 58°21' W 135°50'4 7.5
2018-Aug-15 07:00N 58°23' W 135°44'0 0.0
2018-Aug-15 06:23N 58°23' W 135°44'0 0.1
2018-Aug-15 05:53N 58°23' W 135°44'0 0.0
2018-Aug-15 05:29N 58°23' W 135°44'0 0.1
2018-Aug-15 04:56N 58°23' W 135°44'0 0.0
2018-Aug-15 04:29N 58°23' W 135°44'0 0.0
2018-Aug-15 03:53N 58°23' W 135°44'0 0.0
2018-Aug-15 03:17N 58°23' W 135°44'0 0.3
2018-Aug-15 03:00N 58°23' W 135°44'2 4.1
2018-Aug-15 02:30N 58°22' W 135°48'4 8.9
2018-Aug-15 02:00N 58°19' W 135°55'2 4.8
2018-Aug-15 01:30N 58°18' W 135°58'5 9.2
2018-Aug-15 01:00N 58°15' W 136°05'5 9.3
2018-Aug-15 00:26N 58°15' W 136°15'3 5.8
2018-Aug-14 23:59N 58°14' W 136°20'0 0.0
2018-Aug-14 23:12N 58°14' W 136°20'0 0.0
2018-Aug-14 20:51N 58°14' W 136°20'0 0.0
2018-Aug-14 20:21N 58°14' W 136°20'0 0.0
2018-Aug-14 18:48N 58°14' W 136°20'1 0.1
2018-Aug-14 11:48N 58°14' W 136°20'3 9.2
2018-Aug-14 11:30N 58°14' W 136°15'5 9.9
2018-Aug-14 11:00N 58°15' W 136°06'4 8.8
2018-Aug-14 10:30N 58°16' W 135°58'510.0
2018-Aug-14 10:00N 58°18' W 135°49'510.1
2018-Aug-14 09:30N 58°16' W 135°40'510.4
2018-Aug-14 09:00N 58°14' W 135°31'  
2018-Aug-11 09:47N 58°12' W 135°28'3 9.8
2018-Aug-11 09:30N 58°14' W 135°32'5 9.6
2018-Aug-11 09:01N 58°16' W 135°40'5 9.6
2018-Aug-11 08:30N 58°18' W 135°49'4 8.6
2018-Aug-11 08:00N 58°20' W 135°56'4 7.8
2018-Aug-11 07:31N 58°24' W 135°57'4 8.0
2018-Aug-11 07:00N 58°27' W 135°54'0 0.5
2018-Aug-11 06:28N 58°27' W 135°53'0 0.0
2018-Aug-11 05:58N 58°27' W 135°53'0 0.0
2018-Aug-11 05:28N 58°27' W 135°53'0 0.0
2018-Aug-11 04:58N 58°27' W 135°53'0 0.0
2018-Aug-11 04:30N 58°27' W 135°53'1 2.9
2018-Aug-11 04:00N 58°27' W 135°56'5 9.3
2018-Aug-11 03:30N 58°29' W 136°03'611.8
2018-Aug-11 03:00N 58°34' W 136°08'611.6
2018-Aug-11 02:30N 58°39' W 136°15'510.2
2018-Aug-11 02:00N 58°42' W 136°22'5 9.0
2018-Aug-11 01:30N 58°47' W 136°26'5 0.6
2018-Aug-10 17:30N 58°45' W 136°16'511.0
2018-Aug-10 17:00N 58°41' W 136°09'4 8.4
2018-Aug-10 16:30N 58°39' W 136°03'1 1.7
2018-Aug-10 16:00N 58°38' W 136°02'5 9.1
2018-Aug-10 15:30N 58°34' W 136°03'4 9.0
2018-Aug-10 15:00N 58°29' W 136°03'4 7.4
2018-Aug-10 14:30N 58°26' W 135°58'3 5.3
2018-Aug-10 14:00N 58°28' W 135°54'0 0.1
2018-Aug-10 13:30N 58°28' W 135°54'4 7.4
2018-Aug-10 13:00N 58°24' W 135°58'3 6.2
2018-Aug-10 12:30N 58°21' W 135°58'3 6.1
2018-Aug-10 12:00N 58°20' W 135°53'5 9.4
2018-Aug-10 11:30N 58°23' W 135°45'1 2.1
2018-Aug-10 11:00N 58°23' W 135°44'0 0.0
2018-Aug-10 10:30N 58°23' W 135°44'0 0.0
2018-Aug-10 10:00N 58°23' W 135°44'0 0.0
2018-Aug-10 09:30N 58°23' W 135°44'0 0.0
2018-Aug-10 09:00N 58°23' W 135°44'0 0.1
2018-Aug-10 08:27N 58°23' W 135°43'0 0.0
2018-Aug-10 07:57N 58°23' W 135°43'0 0.0
2018-Aug-10 07:27N 58°23' W 135°43'0 0.1
2018-Aug-10 07:00N 58°23' W 135°43'0 0.0
2018-Aug-10 06:21N 58°23' W 135°43'0 0.1
2018-Aug-10 06:00N 58°23' W 135°43'0 0.1
2018-Aug-10 05:27N 58°23' W 135°43'0 0.0
2018-Aug-10 04:57N 58°23' W 135°43'0 0.0
2018-Aug-10 04:30N 58°23' W 135°43'1 2.2
2018-Aug-10 04:00N 58°22' W 135°45'510.1
2018-Aug-10 03:30N 58°20' W 135°53'510.9
2018-Aug-10 03:00N 58°16' W 136°01'6 9.8
2018-Aug-10 02:26N 58°15' W 136°11'5 0.9
2018-Aug-09 20:35N 58°14' W 136°20'1 6.1
2018-Aug-09 20:29N 58°14' W 136°20'0 0.0
2018-Aug-09 15:45N 58°14' W 136°20'0 0.1
2018-Aug-09 15:23N 58°14' W 136°20'1 2.7
2018-Aug-09 15:00N 58°14' W 136°18'3 4.6
2018-Aug-09 14:15N 58°15' W 136°12'2 6.8
2018-Aug-09 14:00N 58°14' W 136°09'4 8.2
2018-Aug-09 13:30N 58°15' W 136°01'4 8.1
2018-Aug-09 13:00N 58°18' W 135°55'4 8.0
2018-Aug-09 12:30N 58°18' W 135°48'4 7.7
2018-Aug-09 12:00N 58°16' W 135°41'4 7.9
2018-Aug-09 11:28N 58°14' W 135°34'  

Dump ship's entire track history